Time;durP1;ratioP1;P1;durP2;ratioP2;P2;SDS_P1;SDS_P2;PMS_P1;PMS_P2;Temp;Humidity;BMP_temperature;BMP_pressure;BME280_temperature;BME280_humidity;BME280_pressure;Samples;Min_cycle;Max_cycle;Signal;HPM_P1;HPM_P2
2022/05/04 00:00:28;;;;;;;3.80;1.38;;;;;;;15.45;35.63;98485.25;5014152;28;20056;-76
2022/05/04 00:02:54;;;;;;;5.50;1.40;;;;;;;15.42;35.49;98482.19;4998646;28;20198;-77
2022/05/04 00:05:19;;;;;;;3.15;1.30;;;;;;;15.42;35.26;98477.66;5000862;28;20113;-77
2022/05/04 00:07:45;;;;;;;3.50;1.42;;;;;;;15.31;35.21;98462.28;5000156;28;20132;-78
2022/05/04 00:10:11;;;;;;;5.15;1.45;;;;;;;15.26;35.48;98464.78;5001783;28;20045;-80
2022/05/04 00:12:37;;;;;;;3.03;1.30;;;;;;;15.31;35.54;98490.88;5019524;28;20045;-79
2022/05/04 00:15:04;;;;;;;6.85;1.40;;;;;;;15.41;35.43;98499.28;5004751;28;20045;-78
2022/05/04 00:17:31;;;;;;;2.65;1.30;;;;;;;15.41;35.56;98493.94;5015798;28;20054;-75
2022/05/04 00:19:57;;;;;;;2.33;1.08;;;;;;;15.42;35.52;98509.78;5011614;28;20042;-74
2022/05/04 00:22:25;;;;;;;1.80;1.10;;;;;;;15.44;35.35;98505.00;4978254;28;20050;-73
2022/05/04 00:24:51;;;;;;;2.78;1.27;;;;;;;15.33;35.25;98496.84;4994798;28;20042;-75
2022/05/04 00:27:17;;;;;;;5.35;1.10;;;;;;;15.32;35.33;98504.03;4995015;28;20064;-76
2022/05/04 00:29:43;;;;;;;4.40;1.13;;;;;;;15.36;35.23;98507.91;4978025;28;20052;-79
2022/05/04 00:32:10;;;;;;;1.20;1.10;;;;;;;15.43;35.23;98506.06;5008390;28;20120;-80
2022/05/04 00:34:38;;;;;;;3.17;1.63;;;;;;;15.37;35.33;98498.88;4992156;28;20157;-78
2022/05/04 00:37:04;;;;;;;3.15;1.90;;;;;;;15.27;35.53;98510.03;5010572;28;20046;-77
2022/05/04 00:39:30;;;;;;;9.07;4.78;;;;;;;15.20;35.22;98505.75;4976435;28;20042;-81
2022/05/04 00:42:09;;;;;;;3.22;2.00;;;;;;;15.39;35.28;98504.03;5008569;28;20072;-79
2022/05/04 00:44:35;;;;;;;2.80;1.20;;;;;;;15.07;35.33;98490.59;5009792;28;20054;-79
2022/05/04 00:47:00;;;;;;;1.58;1.20;;;;;;;15.06;35.53;98501.50;4976663;28;20116;-80
2022/05/04 00:49:27;;;;;;;32.92;16.60;;;;;;;15.15;35.39;98495.69;5008758;28;20041;-79
2022/05/04 00:51:53;;;;;;;10.73;5.95;;;;;;;15.15;35.58;98486.84;4991887;28;20045;-79
2022/05/04 00:54:19;;;;;;;10.15;5.07;;;;;;;15.30;35.65;98486.56;4991992;28;20469;-79
2022/05/04 00:56:45;;;;;;;4.05;1.23;;;;;;;15.20;35.21;98477.16;4978298;28;20038;-77
2022/05/04 00:59:11;;;;;;;1.98;1.15;;;;;;;15.28;35.07;98497.47;4993896;28;20119;-77
2022/05/04 01:01:37;;;;;;;3.97;1.10;;;;;;;15.24;34.88;98491.72;5028098;28;20081;-77
2022/05/04 01:04:03;;;;;;;2.83;1.20;;;;;;;15.28;35.09;98492.94;5014221;28;20108;-77
2022/05/04 01:06:31;;;;;;;1.98;1.20;;;;;;;15.24;35.18;98483.72;4995715;28;20044;-78
2022/05/04 01:08:58;;;;;;;4.07;1.35;;;;;;;15.22;35.18;98482.28;4995054;28;20104;-76
2022/05/04 01:11:24;;;;;;;2.92;1.08;;;;;;;15.03;35.19;98493.91;4994293;28;20544;-76
2022/05/04 01:14:03;;;;;;;2.35;1.30;;;;;;;15.11;35.40;98481.09;4994098;28;20073;-76
2022/05/04 01:16:29;;;;;;;2.00;1.08;;;;;;;14.90;35.68;98469.91;4993656;28;20062;-79
2022/05/04 01:18:55;;;;;;;3.38;1.20;;;;;;;14.98;35.55;98480.34;4993789;28;20053;-79
2022/05/04 01:21:21;;;;;;;4.75;1.67;;;;;;;14.91;35.38;98471.56;4978487;28;20049;-78
2022/05/04 01:23:47;;;;;;;3.97;1.40;;;;;;;14.86;35.48;98474.88;4993912;28;20042;-70
2022/05/04 01:26:16;;;;;;;1.30;1.08;;;;;;;14.92;35.69;98478.53;5009347;28;20521;-71
2022/05/04 01:28:43;;;;;;;3.28;1.15;;;;;;;14.58;35.85;98454.84;4976997;28;20049;-72
2022/05/04 01:31:09;;;;;;;3.75;1.10;;;;;;;14.63;35.78;98471.06;5009984;28;20034;-71
2022/05/04 01:33:36;;;;;;;2.38;1.20;;;;;;;14.76;35.73;98481.72;4992964;28;20038;-72
2022/05/04 01:36:03;;;;;;;1.10;1.00;;;;;;;14.59;36.07;98464.53;5009479;28;20046;-72
2022/05/04 01:38:28;;;;;;;3.33;1.25;;;;;;;14.60;35.89;98472.31;4993006;28;20041;-72
2022/05/04 01:40:54;;;;;;;2.83;1.25;;;;;;;14.60;35.86;98474.16;4992757;28;20045;-70
2022/05/04 01:43:20;;;;;;;3.78;1.38;;;;;;;14.35;36.15;98449.19;4992621;28;20046;-71
2022/05/04 01:45:46;;;;;;;3.72;1.50;;;;;;;14.47;36.24;98484.88;5009333;28;20502;-77
2022/05/04 01:48:13;;;;;;;2.17;1.17;;;;;;;14.59;36.41;98480.56;5009598;28;20053;-73
2022/05/04 01:50:38;;;;;;;2.22;1.30;;;;;;;14.51;36.43;98486.13;4992759;28;20081;-72
2022/05/04 01:53:04;;;;;;;3.28;1.20;;;;;;;14.46;36.91;98485.94;4993091;28;20074;-72
2022/05/04 01:55:34;;;;;;;1.38;1.20;;;;;;;14.59;36.77;98485.91;5025496;28;20042;-72
2022/05/04 01:58:00;;;;;;;5.25;1.30;;;;;;;14.46;36.88;98489.44;4993009;28;20042;-72
2022/05/04 02:00:26;;;;;;;4.68;1.55;;;;;;;14.42;37.39;98492.72;4992748;28;20100;-73
2022/05/04 02:02:53;;;;;;;3.42;1.35;;;;;;;14.36;37.37;98491.72;4993036;28;20080;-72
2022/05/04 02:05:21;;;;;;;3.40;1.50;;;;;;;14.33;37.75;98494.00;5008953;28;20046;-73
2022/05/04 02:07:47;;;;;;;3.10;1.40;;;;;;;14.15;37.82;98488.44;5009733;28;20030;-72
2022/05/04 02:10:14;;;;;;;1.92;1.48;;;;;;;14.14;37.91;98489.47;4976446;28;20048;-73
2022/05/04 02:12:39;;;;;;;4.07;1.60;;;;;;;14.13;37.90;98502.00;5008838;28;20464;-72
2022/05/04 02:15:06;;;;;;;4.10;1.33;;;;;;;14.14;37.74;98505.50;4992324;28;20132;-72
2022/05/04 02:17:32;;;;;;;2.85;1.40;;;;;;;14.03;38.23;98501.63;4976582;28;20061;-72
2022/05/04 02:19:58;;;;;;;3.50;1.80;;;;;;;14.06;37.90;98498.53;4976403;28;20033;-71
2022/05/04 02:22:23;;;;;;;2.40;1.60;;;;;;;14.01;37.88;98505.53;4992312;28;20038;-72
2022/05/04 02:24:49;;;;;;;6.05;1.80;;;;;;;14.03;38.17;98501.63;4993588;28;20069;-73
2022/05/04 02:27:15;;;;;;;4.93;1.63;;;;;;;13.98;37.95;98506.75;4996133;28;20045;-70
2022/05/04 02:29:41;;;;;;;4.68;1.88;;;;;;;13.97;37.66;98514.97;5029070;28;20054;-71
2022/05/04 02:32:07;;;;;;;7.65;1.42;;;;;;;14.00;37.76;98512.72;4995596;28;20046;-71
2022/05/04 02:34:33;;;;;;;5.03;1.80;;;;;;;13.89;38.05;98515.16;4979506;28;20509;-69
2022/05/04 02:39:43;;;;;;;3.90;1.45;;;;;;;13.91;37.83;98513.13;5012293;28;20052;-71
2022/05/04 02:42:10;;;;;;;2.25;1.50;;;;;;;13.89;37.83;98507.16;4995518;28;20046;-71
2022/05/04 02:44:36;;;;;;;5.28;1.35;;;;;;;13.95;37.71;98514.34;4995794;28;20072;-70
2022/05/04 02:47:02;;;;;;;4.40;1.45;;;;;;;13.99;37.88;98531.59;4995517;28;20525;-70
2022/05/04 02:49:28;;;;;;;1.92;1.20;;;;;;;13.95;37.93;98522.34;4995201;28;20490;-70
2022/05/04 02:51:54;;;;;;;4.70;1.50;;;;;;;14.04;37.73;98534.47;4995844;28;20124;-68
2022/05/04 02:54:20;;;;;;;10.05;1.88;;;;;;;14.03;37.91;98522.13;4995535;28;20399;-76
2022/05/04 02:56:46;;;;;;;5.70;1.67;;;;;;;14.01;37.50;98525.00;4995634;28;20104;-70
2022/05/04 02:59:12;;;;;;;3.42;1.60;;;;;;;14.09;37.54;98523.97;4995307;28;20134;-68
2022/05/04 03:04:30;;;;;;;4.05;1.70;;;;;;;14.15;37.62;98536.50;5014077;28;20053;-71
2022/05/04 03:06:55;;;;;;;5.40;1.85;;;;;;;14.12;37.50;98536.91;4995354;28;20045;-71
2022/05/04 03:09:21;;;;;;;5.25;1.83;;;;;;;14.20;36.99;98548.22;5011976;28;20046;-75
2022/05/04 03:11:56;;;;;;;4.00;1.80;;;;;;;14.19;37.44;98543.88;5011690;28;20070;-71
2022/05/04 03:14:23;;;;;;;4.55;2.20;;;;;;;14.22;37.59;98553.34;5026305;28;20060;-75
2022/05/04 03:16:53;;;;;;;7.07;1.80;;;;;;;14.34;37.39;98562.41;5011757;28;20049;-70
2022/05/04 03:19:24;;;;;;;8.07;2.00;;;;;;;14.40;37.20;98557.06;5011093;28;20144;-71
2022/05/04 03:21:51;;;;;;;2.78;1.80;;;;;;;14.39;37.20;98547.38;5011516;28;20089;-72
2022/05/04 03:24:17;;;;;;;2.38;1.55;;;;;;;14.62;36.61;98558.44;5011311;28;20042;-72
2022/05/04 03:26:43;;;;;;;2.05;1.60;;;;;;;14.70;36.03;98552.03;5011148;28;20053;-69
2022/05/04 03:29:09;;;;;;;7.22;1.90;;;;;;;14.87;35.61;98567.41;5011096;28;20073;-72
2022/05/04 03:31:35;;;;;;;4.60;1.80;;;;;;;14.91;35.71;98533.84;5027484;28;20142;-72
2022/05/04 03:34:01;;;;;;;5.10;1.40;;;;;;;15.23;34.44;98574.88;5010888;28;20129;-71
2022/05/04 03:36:27;;;;;;;3.88;1.27;;;;;;;15.33;34.16;98566.38;4994627;28;20054;-71
2022/05/04 03:38:53;;;;;;;3.25;1.25;;;;;;;15.38;33.47;98570.09;5010990;28;20056;-80
2022/05/04 03:41:19;;;;;;;3.42;1.30;;;;;;;15.42;33.41;98570.47;4978689;28;20440;-73
2022/05/04 03:43:44;;;;;;;6.90;1.88;;;;;;;15.25;34.32;98565.59;4994159;28;20050;-73
2022/05/04 03:46:15;;;;;;;1.80;1.20;;;;;;;15.37;33.73;98563.06;4978118;28;20046;-73
2022/05/04 03:48:42;;;;;;;3.40;1.17;;;;;;;15.21;33.77;98569.72;4978474;28;20049;-74
2022/05/04 03:51:09;;;;;;;3.25;1.08;;;;;;;15.20;33.41;98573.44;4978623;28;20204;-75
2022/05/04 03:53:36;;;;;;;1.38;1.08;;;;;;;15.33;33.55;98585.91;4962593;28;20042;-73
2022/05/04 03:56:02;;;;;;;8.27;1.15;;;;;;;15.30;33.45;98580.19;4977878;28;20058;-74
2022/05/04 03:58:28;;;;;;;2.53;1.10;;;;;;;15.36;33.45;98579.34;4994196;28;20096;-74
2022/05/04 04:00:54;;;;;;;4.18;1.10;;;;;;;15.45;33.61;98583.44;4977799;28;20092;-73
2022/05/04 04:03:19;;;;;;;1.73;1.17;;;;;;;15.42;33.59;98575.84;4994609;28;20054;-74
2022/05/04 04:05:45;;;;;;;2.65;1.50;;;;;;;15.46;33.57;98569.84;4977659;28;20068;-73
2022/05/04 04:08:11;;;;;;;4.68;1.60;;;;;;;15.49;33.65;98574.75;5010395;28;20038;-72
2022/05/04 04:10:36;;;;;;;11.90;4.03;;;;;;;15.57;33.72;98585.22;5010380;28;20052;-73
2022/05/04 04:13:02;;;;;;;3.63;2.72;;;;;;;15.60;33.88;98581.28;5027031;28;20269;-71
2022/05/04 04:15:28;;;;;;;4.50;1.60;;;;;;;15.52;34.07;98573.50;4993856;28;20045;-73
2022/05/04 04:17:54;;;;;;;2.40;1.30;;;;;;;15.45;34.56;98565.53;4977892;28;20057;-72
2022/05/04 04:23:07;;;;;;;2.78;1.40;;;;;;;15.72;33.51;98580.38;5010433;28;20046;-69
2022/05/04 04:25:54;;;;;;;1.80;1.50;;;;;;;16.20;32.65;98576.09;4994314;28;20069;-68
2022/05/04 04:28:20;;;;;;;2.53;1.38;;;;;;;16.13;32.67;98551.22;4994158;28;20145;-70
2022/05/04 04:30:47;;;;;;;2.67;1.27;;;;;;;16.74;31.82;98580.75;5010507;28;20064;-70
2022/05/04 04:33:13;;;;;;;1.58;1.02;;;;;;;16.88;31.40;98583.06;5009433;28;20046;-71
2022/05/04 04:35:39;;;;;;;2.17;1.10;;;;;;;17.01;30.89;98586.63;4961024;28;20136;-70
2022/05/04 04:38:06;;;;;;;4.57;1.55;;;;;;;17.10;30.49;98591.47;5009773;28;20069;-68
2022/05/04 04:40:32;;;;;;;1.05;0.80;;;;;;;16.99;30.59;98588.72;5010295;28;20048;-70
2022/05/04 04:43:00;;;;;;;1.35;1.10;;;;;;;17.02;30.53;98588.28;4994077;28;20410;-68
2022/05/04 04:45:30;;;;;;;2.13;1.27;;;;;;;17.01;30.41;98570.53;5026957;28;20054;-70
2022/05/04 04:47:56;;;;;;;1.70;1.13;;;;;;;17.15;30.60;98606.88;4993278;28;20041;-69
2022/05/04 04:50:23;;;;;;;2.47;1.05;;;;;;;17.03;30.19;98601.47;4993557;28;20045;-70
2022/05/04 04:52:49;;;;;;;4.60;1.00;;;;;;;16.83;30.30;98580.25;5025822;28;20042;-74
2022/05/04 04:55:15;;;;;;;9.82;1.00;;;;;;;16.93;30.57;98614.56;5024762;28;20049;-69
2022/05/04 04:57:41;;;;;;;3.75;1.40;;;;;;;16.91;30.98;98607.81;4991069;28;20041;-69
2022/05/04 05:00:07;;;;;;;2.65;1.15;;;;;;;17.08;31.08;98620.41;5008379;28;20131;-71
2022/05/04 05:02:36;;;;;;;2.55;1.10;;;;;;;16.99;31.46;98634.34;5007321;28;20533;-69
2022/05/04 05:05:05;;;;;;;3.60;1.20;;;;;;;17.02;31.85;98631.19;4974047;28;20046;-70
2022/05/04 05:07:31;;;;;;;1.63;1.20;;;;;;;16.77;31.62;98620.53;4974157;28;20045;-74
2022/05/04 05:09:57;;;;;;;2.88;1.10;;;;;;;16.53;32.05;98626.72;4990533;28;20476;-73
2022/05/04 05:12:23;;;;;;;4.25;1.30;;;;;;;16.56;32.20;98626.28;5005576;28;20054;-72
2022/05/04 05:17:50;;;;;;;2.22;0.90;;;;;;;16.42;32.22;98630.13;5006113;28;20426;-73
2022/05/04 05:20:16;;;;;;;1.85;1.00;;;;;;;16.26;32.60;98634.16;5007108;28;20498;-69
2022/05/04 05:22:41;;;;;;;2.28;1.10;;;;;;;15.83;32.94;98565.47;5008404;28;20046;-69
2022/05/04 05:25:07;;;;;;;3.85;2.17;;;;;;;16.22;33.23;98619.53;4991573;28;20046;-70
2022/05/04 05:27:33;;;;;;;3.75;1.00;;;;;;;16.29;32.93;98633.72;4975646;28;20096;-69
2022/05/04 05:29:59;;;;;;;1.80;1.10;;;;;;;16.37;32.60;98609.34;5008510;28;20533;-71
2022/05/04 05:32:25;;;;;;;1.42;1.00;;;;;;;16.20;33.04;98626.16;4992405;28;20417;-71
2022/05/04 05:34:53;;;;;;;3.13;1.30;;;;;;;16.75;32.91;98650.25;4991658;28;20367;-71
2022/05/04 05:37:20;;;;;;;2.90;1.20;;;;;;;16.70;32.88;98639.38;5007769;28;20581;-71
2022/05/04 05:39:47;;;;;;;2.80;1.30;;;;;;;16.76;32.77;98654.56;5008464;28;20077;-71
2022/05/04 05:42:13;;;;;;;3.00;1.02;;;;;;;16.79;32.42;98624.63;4975721;28;20069;-71
2022/05/04 05:44:39;;;;;;;2.08;0.95;;;;;;;16.87;32.16;98622.72;4959927;28;20133;-71
2022/05/04 05:47:05;;;;;;;2.78;1.00;;;;;;;16.98;32.50;98646.09;4991739;28;20140;-72
2022/05/04 05:49:33;;;;;;;1.25;0.80;;;;;;;17.03;32.45;98648.94;4992404;28;20049;-72
2022/05/04 05:51:59;;;;;;;4.20;1.10;;;;;;;17.06;32.19;98640.44;5007527;28;20410;-71
2022/05/04 05:54:25;;;;;;;3.47;2.13;;;;;;;17.05;31.63;98646.84;4991855;28;20053;-70
2022/05/04 05:56:51;;;;;;;3.60;2.33;;;;;;;16.92;31.61;98657.72;4975226;28;20041;-69
2022/05/04 05:59:19;;;;;;;9.48;4.28;;;;;;;16.74;32.03;98661.19;4975576;28;20034;-70
2022/05/04 06:01:45;;;;;;;5.43;3.95;;;;;;;16.29;32.80;98652.47;4995800;28;20042;-69
2022/05/04 06:04:11;;;;;;;4.88;2.30;;;;;;;16.33;32.81;98652.84;4995272;28;20045;-69
2022/05/04 06:06:46;;;;;;;2.97;1.55;;;;;;;16.43;32.89;98654.03;5012310;28;20077;-71
2022/05/04 06:09:12;;;;;;;4.25;1.38;;;;;;;16.62;32.50;98669.13;5011154;28;20041;-70
2022/05/04 06:11:38;;;;;;;4.40;1.60;;;;;;;16.72;32.07;98664.09;5010946;28;20473;-72
2022/05/04 06:14:04;;;;;;;2.13;1.10;;;;;;;16.93;32.20;98665.53;4979230;28;20080;-74
2022/05/04 06:16:30;;;;;;;8.57;1.50;;;;;;;17.34;31.73;98670.25;4994808;28;20058;-72
2022/05/04 06:18:56;;;;;;;2.83;1.13;;;;;;;17.27;31.90;98661.44;5011700;28;20137;-72
2022/05/04 06:21:22;;;;;;;4.47;1.30;;;;;;;17.21;31.50;98641.69;4994917;28;20111;-72
2022/05/04 06:23:47;;;;;;;4.68;1.35;;;;;;;17.26;31.41;98660.63;4995087;28;20583;-71
2022/05/04 06:26:14;;;;;;;4.68;1.27;;;;;;;17.20;31.12;98653.50;4994527;28;20148;-71
2022/05/04 06:28:40;;;;;;;2.13;1.25;;;;;;;16.96;31.56;98650.88;5011461;28;20390;-72
2022/05/04 06:34:08;;;;;;;4.30;1.50;;;;;;;17.15;31.32;98649.81;5027396;28;20048;-70
2022/05/04 06:36:34;;;;;;;7.97;1.35;;;;;;;17.38;30.80;98650.78;4994905;28;20038;-70
2022/05/04 06:39:00;;;;;;;1.92;1.20;;;;;;;17.65;30.10;98664.75;4992523;28;20452;-72
2022/05/04 06:41:27;;;;;;;7.55;1.70;;;;;;;17.84;29.87;98659.09;4978541;28;20145;-70
2022/05/04 06:43:53;;;;;;;8.07;1.40;;;;;;;18.06;29.33;98672.84;4994542;28;20053;-71
2022/05/04 06:46:19;;;;;;;3.60;1.20;;;;;;;17.96;28.48;98618.81;4977771;28;20100;-71
2022/05/04 06:48:46;;;;;;;6.75;1.33;;;;;;;18.35;27.43;98677.34;4966811;28;20041;-73
2022/05/04 06:51:12;;;;;;;6.50;1.23;;;;;;;18.48;26.87;98669.13;4997938;28;20041;-70
2022/05/04 06:53:38;;;;;;;2.95;1.02;;;;;;;18.01;26.44;98640.44;5013914;28;20048;-70
2022/05/04 06:56:04;;;;;;;1.48;0.88;;;;;;;17.99;27.09;98627.25;4997290;28;20054;-71
2022/05/04 06:58:30;;;;;;;2.65;1.10;;;;;;;18.49;26.18;98686.88;5013001;28;20452;-72
2022/05/04 07:00:56;;;;;;;2.60;0.82;;;;;;;18.82;26.12;98686.34;5010506;28;20045;-71
2022/05/04 07:03:22;;;;;;;5.75;0.90;;;;;;;19.20;25.82;98692.06;5014505;28;20520;-71
2022/05/04 07:05:48;;;;;;;4.18;1.17;;;;;;;19.40;25.24;98679.06;5029850;28;20072;-71
2022/05/04 07:08:15;;;;;;;1.75;0.88;;;;;;;19.46;25.05;98696.97;4997203;28;20038;-71
2022/05/04 07:10:41;;;;;;;5.00;1.45;;;;;;;19.12;25.27;98693.22;5030037;28;20045;-71
2022/05/04 07:13:10;;;;;;;2.88;1.02;;;;;;;18.79;25.87;98703.75;4996930;28;20138;-71
2022/05/04 07:15:35;;;;;;;4.03;1.10;;;;;;;19.62;25.09;98713.19;4997473;28;20041;-71
2022/05/04 07:18:01;;;;;;;3.92;0.70;;;;;;;21.43;22.57;98719.88;5013162;28;20068;-70
2022/05/04 07:20:27;;;;;;;2.47;0.75;;;;;;;23.56;20.18;98737.97;4997710;28;20063;-70
2022/05/04 07:22:53;;;;;;;2.55;0.90;;;;;;;25.50;17.33;98735.91;4997242;28;20521;-70
2022/05/04 07:25:19;;;;;;;5.97;0.77;;;;;;;27.24;15.39;98748.81;4997299;28;20033;-70
2022/05/04 07:27:44;;;;;;;4.28;0.90;;;;;;;27.42;14.79;98746.22;4996590;28;20045;-70
2022/05/04 07:30:11;;;;;;;3.05;0.88;;;;;;;26.56;15.75;98755.31;5013681;28;20485;-70
2022/05/04 07:32:37;;;;;;;4.22;1.20;;;;;;;26.04;16.39;98755.88;4997056;28;20041;-70
2022/05/04 07:35:05;;;;;;;6.35;0.90;;;;;;;25.80;16.54;98763.81;4996782;28;20060;-70
2022/05/04 07:37:31;;;;;;;1.80;1.00;;;;;;;26.05;16.06;98757.50;5029724;28;20516;-71
2022/05/04 07:42:41;;;;;;;6.57;1.10;;;;;;;27.00;15.00;98764.31;5015580;28;20556;-70
2022/05/04 07:45:08;;;;;;;2.20;1.00;;;;;;;28.21;13.62;98751.03;4996588;28;20037;-71
2022/05/04 07:47:35;;;;;;;4.40;0.90;;;;;;;28.15;13.90;98760.41;4996736;28;20042;-71
2022/05/04 07:50:03;;;;;;;4.03;1.08;;;;;;;27.29;14.46;98757.78;4996932;28;20128;-72
2022/05/04 07:52:32;;;;;;;3.58;1.40;;;;;;;26.26;15.58;98753.59;5030172;28;20041;-70
2022/05/04 07:54:58;;;;;;;2.88;1.30;;;;;;;26.25;15.40;98769.13;5014774;28;20046;-70
2022/05/04 07:57:24;;;;;;;5.63;1.02;;;;;;;26.07;16.01;98771.66;4997321;28;20045;-71
2022/05/04 08:05:24;;;;;;;7.20;1.27;;;;;;;30.61;11.75;98786.22;5029309;28;20045;-71
2022/05/04 08:07:50;;;;;;;1.90;0.70;;;;;;;31.25;10.97;98766.56;5030191;28;20136;-71
2022/05/04 08:10:17;;;;;;;2.13;0.80;;;;;;;30.62;11.19;98768.63;5028988;28;20045;-71
2022/05/04 08:12:43;;;;;;;1.98;0.88;;;;;;;29.04;12.42;98793.03;5028194;28;20052;-70
2022/05/04 08:15:09;;;;;;;5.93;1.00;;;;;;;27.30;14.12;98794.06;4996014;28;20413;-70
2022/05/04 08:17:35;;;;;;;3.35;1.00;;;;;;;26.54;14.11;98765.69;5012076;28;20072;-71
2022/05/04 08:20:00;;;;;;;5.60;1.08;;;;;;;26.17;15.05;98786.03;5030178;28;20473;-70
2022/05/04 08:22:27;;;;;;;11.75;1.45;;;;;;;27.32;14.04;98798.13;5029649;28;20049;-69
2022/05/04 08:24:53;;;;;;;3.42;1.30;;;;;;;29.83;11.92;98804.81;4995947;28;20470;-69
2022/05/04 08:27:19;;;;;;;3.03;1.17;;;;;;;31.92;10.39;98795.56;5011992;28;20512;-71
2022/05/04 08:29:46;;;;;;;8.60;1.38;;;;;;;34.07;8.85;98779.56;5011968;28;20037;-71
2022/05/04 08:32:12;;;;;;;7.72;1.17;;;;;;;36.14;7.73;98805.06;5012243;28;20034;-74
2022/05/04 08:34:38;;;;;;;3.97;1.20;;;;;;;37.76;6.14;98783.91;5012194;28;20041;-75
2022/05/04 08:37:06;;;;;;;4.30;1.10;;;;;;;39.20;5.66;98820.66;5012903;28;20049;-72
2022/05/04 08:39:32;;;;;;;16.00;1.55;;;;;;;39.82;5.08;98817.53;5012254;28;20536;-70
2022/05/04 08:42:00;;;;;;;2.30;1.20;;;;;;;40.89;4.32;98826.47;5028358;28;20092;-70
2022/05/04 08:44:25;;;;;;;3.22;1.02;;;;;;;41.61;3.25;98803.50;5045301;28;20558;-70
2022/05/04 08:46:52;;;;;;;1.73;0.90;;;;;;;41.69;4.00;98812.75;5028419;28;20045;-70
2022/05/04 08:49:19;;;;;;;2.17;0.95;;;;;;;41.83;3.61;98803.72;4995384;28;20072;-71
2022/05/04 08:51:45;;;;;;;2.83;1.05;;;;;;;42.37;3.41;98817.78;5028219;28;20088;-70
2022/05/04 08:54:12;;;;;;;4.20;1.08;;;;;;;43.11;3.07;98817.09;5028259;28;20045;-69
2022/05/04 08:56:38;;;;;;;3.35;1.00;;;;;;;43.42;2.75;98809.19;5029406;28;20056;-69
2022/05/04 08:59:05;;;;;;;7.25;1.00;;;;;;;42.40;3.25;98806.66;5011324;28;20049;-73
2022/05/04 09:01:32;;;;;;;6.03;1.02;;;;;;;39.98;4.28;98814.66;5028546;28;20095;-69
2022/05/04 09:03:59;;;;;;;2.88;0.98;;;;;;;39.04;4.20;98813.56;4995504;28;20041;-69
2022/05/04 09:06:29;;;;;;;5.75;1.30;;;;;;;38.56;4.37;98800.97;5011772;28;20056;-70
2022/05/04 09:09:10;;;;;;;1.55;0.85;;;;;;;39.88;3.83;98810.53;5011410;28;20045;-70
2022/05/04 09:11:44;;;;;;;2.17;1.00;;;;;;;41.55;3.16;98813.41;4995364;28;20059;-71
2022/05/04 09:14:14;;;;;;;4.78;0.90;;;;;;;40.13;3.55;98822.84;5011455;28;20041;-70
2022/05/04 09:16:40;;;;;;;4.10;1.13;;;;;;;37.22;4.91;98810.50;5027739;28;20049;-70
2022/05/04 09:19:06;;;;;;;15.48;1.30;;;;;;;34.38;6.62;98817.06;4995068;28;20038;-69
2022/05/04 09:21:32;;;;;;;18.73;2.03;;;;;;;32.07;8.02;98822.63;5028276;28;20089;-69
2022/05/04 09:23:58;;;;;;;5.35;1.10;;;;;;;30.12;9.80;98825.34;5027640;28;20053;-69
2022/05/04 09:26:24;;;;;;;8.90;1.50;;;;;;;28.59;10.99;98872.94;5011526;28;20151;-69
2022/05/04 09:28:51;;;;;;;10.55;1.40;;;;;;;29.35;10.96;98872.69;5027381;28;20045;-69
2022/05/04 09:31:18;;;;;;;6.60;1.25;;;;;;;31.28;9.79;98874.91;5010391;28;20053;-70
2022/05/04 09:33:53;;;;;;;5.82;1.33;;;;;;;32.58;8.70;98882.50;4995704;28;20064;-70
2022/05/04 09:36:31;;;;;;;3.88;1.42;;;;;;;34.03;7.97;98894.38;5015543;28;20095;-69
2022/05/04 09:47:18;;;;;;;11.15;1.15;;;;;;;38.80;5.11;98892.34;5017197;28;20041;-70
2022/05/04 09:49:47;;;;;;;3.00;1.20;;;;;;;40.05;4.82;98921.31;5014824;28;20065;-70
2022/05/04 09:52:14;;;;;;;1.88;0.90;;;;;;;40.86;3.95;98924.72;5015253;28;20041;-71
2022/05/04 09:54:40;;;;;;;2.50;0.80;;;;;;;40.39;4.12;98902.84;4999184;28;20501;-70
2022/05/04 09:57:06;;;;;;;5.97;1.10;;;;;;;39.50;3.68;98893.16;4982222;28;20052;-70
2022/05/04 09:59:36;;;;;;;2.78;1.00;;;;;;;38.92;4.16;98906.13;4998878;28;20052;-70
2022/05/04 10:02:04;;;;;;;2.08;0.90;;;;;;;37.74;4.71;98874.94;5014893;28;20041;-69
2022/05/04 10:04:34;;;;;;;5.72;1.10;;;;;;;37.92;4.50;98892.84;5031671;28;20072;-70
2022/05/04 10:07:01;;;;;;;9.23;1.15;;;;;;;38.18;4.03;98895.16;5032235;28;20386;-71
2022/05/04 10:09:27;;;;;;;7.68;1.33;;;;;;;38.77;3.88;98900.63;5031195;28;20489;-70
2022/05/04 10:11:57;;;;;;;6.30;1.17;;;;;;;39.62;3.67;98898.56;5013883;28;20048;-72
2022/05/04 10:14:28;;;;;;;3.95;0.95;;;;;;;40.69;2.88;98911.34;5031086;28;20413;-71
2022/05/04 10:17:06;;;;;;;3.88;1.08;;;;;;;41.45;2.72;98916.41;5030181;28;20069;-71
2022/05/04 10:20:09;;;;;;;1.90;1.00;;;;;;;42.02;2.23;98921.53;5031921;28;20444;-71
2022/05/04 10:22:44;;;;;;;5.22;0.90;;;;;;;43.06;1.91;98914.47;5030457;28;20045;-71
2022/05/04 10:25:11;;;;;;;2.75;1.10;;;;;;;43.56;1.74;98910.78;5030214;28;20072;-71
2022/05/04 10:27:39;;;;;;;1.52;1.08;;;;;;;44.00;1.41;98919.75;4997833;28;20041;-70
2022/05/04 10:32:58;;;;;;;3.95;0.80;;;;;;;42.76;1.32;98908.28;5050347;28;20497;-72
2022/05/04 10:35:44;;;;;;;4.95;1.00;;;;;;;41.61;1.83;98903.91;5048544;28;20040;-71
2022/05/04 10:38:17;;;;;;;2.95;0.90;;;;;;;42.31;1.48;98919.84;5049801;28;20041;-69
2022/05/04 10:41:00;;;;;;;3.13;0.70;;;;;;;41.85;1.75;98918.50;5016931;28;20048;-71
2022/05/04 10:43:36;;;;;;;3.00;1.10;;;;;;;41.95;1.89;98918.66;5048451;28;20044;-72
2022/05/04 10:46:28;;;;;;;2.42;0.95;;;;;;;41.00;2.15;98925.72;5049019;28;20057;-72
2022/05/04 10:49:05;;;;;;;5.93;1.33;;;;;;;38.82;3.17;98908.66;5049885;28;20079;-72
2022/05/04 10:51:33;;;;;;;4.50;0.95;;;;;;;36.17;4.20;98910.28;5050216;28;20045;-70
2022/05/04 10:54:09;;;;;;;1.98;1.08;;;;;;;33.99;5.29;98909.97;5050980;28;20044;-71
2022/05/04 10:56:46;;;;;;;3.80;1.00;;;;;;;31.86;6.41;98909.44;5033582;28;20063;-70
2022/05/04 10:59:33;;;;;;;3.38;1.00;;;;;;;30.13;7.47;98905.56;5049861;28;20051;-70
2022/05/04 11:02:04;;;;;;;5.85;1.30;;;;;;;28.17;9.07;98934.88;5035298;28;20045;-72
2022/05/04 11:04:29;;;;;;;;;;;;;;;26.73;10.56;98954.66;5051325;28;20065;-72
2022/05/04 11:07:06;;;;;;;25.23;2.25;;;;;;;24.82;13.99;98989.94;5016876;28;19975;-70
2022/05/04 11:09:42;;;;;;;17.55;1.50;;;;;;;23.75;15.60;98996.78;5033358;28;20455;-72
2022/05/04 11:12:10;;;;;;;14.77;1.63;;;;;;;22.52;17.79;98970.47;5048575;28;20422;-71
2022/05/04 11:14:36;;;;;;;4.80;1.30;;;;;;;21.88;18.93;99027.88;5049570;28;20041;-72
2022/05/04 11:17:14;;;;;;;2.30;1.10;;;;;;;21.19;20.28;99030.91;5049574;28;20057;-70
2022/05/04 11:19:48;;;;;;;3.17;0.90;;;;;;;20.55;21.37;99036.56;5016487;28;20118;-71
2022/05/04 11:22:17;;;;;;;1.58;0.80;;;;;;;20.17;21.58;99028.97;5032818;28;20044;-71
2022/05/04 11:24:43;;;;;;;5.50;1.00;;;;;;;19.62;22.86;99031.06;5016459;28;20518;-71
2022/05/04 11:27:11;;;;;;;1.75;1.08;;;;;;;19.27;23.67;99013.97;5016255;28;20123;-71
2022/05/04 11:29:37;;;;;;;2.70;1.00;;;;;;;18.85;25.13;98987.22;5050583;28;20065;-72
2022/05/04 11:32:05;;;;;;;2.88;1.00;;;;;;;18.86;25.38;98978.91;5015897;28;20080;-71
2022/05/04 11:34:38;;;;;;;2.85;1.00;;;;;;;18.68;25.66;98972.72;5049455;28;20098;-72
2022/05/04 11:37:08;;;;;;;1.80;0.90;;;;;;;18.70;25.51;98986.78;5033070;28;20044;-72
2022/05/04 11:39:38;;;;;;;1.48;1.00;;;;;;;19.09;25.43;98999.72;5048746;28;20052;-72
2022/05/04 11:42:05;;;;;;;2.00;0.93;;;;;;;19.18;26.15;98999.16;5049304;28;20136;-71
2022/05/04 11:44:32;;;;;;;2.88;0.93;;;;;;;18.90;25.80;98985.47;5049564;28;20547;-71
2022/05/04 11:47:00;;;;;;;2.88;0.90;;;;;;;18.88;25.42;98998.31;5015695;28;20826;-71
2022/05/04 11:49:28;;;;;;;0.80;0.80;;;;;;;18.68;25.89;98995.09;5015827;28;20508;-71
2022/05/04 11:51:56;;;;;;;3.50;1.17;;;;;;;18.62;25.90;99013.97;5015575;28;21092;-71
2022/05/04 11:54:22;;;;;;;2.08;0.80;;;;;;;18.40;26.47;99025.16;5065491;28;20135;-71
2022/05/04 11:56:48;;;;;;;2.55;0.80;;;;;;;18.02;26.82;98991.41;5015364;28;20427;-71
2022/05/04 11:59:14;;;;;;;5.05;1.33;;;;;;;17.84;26.64;98951.88;5014988;28;20416;-71
2022/05/04 12:01:40;;;;;;;1.63;1.10;;;;;;;18.01;26.33;99003.19;5031565;28;20037;-71
2022/05/04 12:04:08;;;;;;;3.95;1.20;;;;;;;17.91;26.38;99003.69;5015440;28;20041;-72
2022/05/04 12:06:35;;;;;;;2.45;1.33;;;;;;;17.84;26.47;99007.47;5048096;28;20044;-71
2022/05/04 12:09:02;;;;;;;2.97;1.55;;;;;;;17.76;26.60;99013.94;5032000;28;20095;-70